createdAt,value
2022-09-05T00:00:27.219Z,73.57
2022-09-05T00:03:34.435Z,73.62
2022-09-05T00:06:23.239Z,73.78
2022-09-05T00:09:27.764Z,73.92
2022-09-05T00:12:12.044Z,73.85
2022-09-05T00:15:18.679Z,73.96
2022-09-05T00:23:58.745Z,73.90
2022-09-05T00:24:25.896Z,73.98
2022-09-05T00:25:30.577Z,74.10
2022-09-05T00:28:50.191Z,74.04
2022-09-05T00:32:01.315Z,73.40
2022-09-05T00:35:02.265Z,73.46
2022-09-05T00:37:56.284Z,73.24
2022-09-05T00:40:44.387Z,73.00
2022-09-05T00:43:38.269Z,73.03
2022-09-05T00:46:24.549Z,73.22
2022-09-05T00:49:23.149Z,72.81
2022-09-05T00:52:43.161Z,72.86
2022-09-05T00:56:06.169Z,72.61
2022-09-05T00:59:05.292Z,72.64
2022-09-05T01:02:06.266Z,72.60
2022-09-05T01:05:11.264Z,73.00
2022-09-05T01:08:20.110Z,72.70
2022-09-05T01:11:13.175Z,73.07
2022-09-05T01:14:14.119Z,72.80
2022-09-05T01:17:20.113Z,72.94
2022-09-05T01:20:19.911Z,72.95
2022-09-05T01:23:33.157Z,73.08
2022-09-05T01:26:59.102Z,72.49
2022-09-05T01:30:01.221Z,73.11
2022-09-05T01:32:48.102Z,72.75
2022-09-05T01:35:35.235Z,72.68
2022-09-05T01:38:37.105Z,72.70
2022-09-05T01:41:28.538Z,72.64
2022-09-05T01:44:54.085Z,72.70
2022-09-05T01:48:11.095Z,72.76
2022-09-05T01:51:03.818Z,72.36
2022-09-05T01:54:41.094Z,72.18
2022-09-05T01:57:56.079Z,72.37
2022-09-05T02:00:43.165Z,72.59
2022-09-05T02:03:51.098Z,72.02
2022-09-05T02:06:56.794Z,71.94
2022-09-05T02:10:37.100Z,72.21
2022-09-05T02:13:34.044Z,72.56
2022-09-05T02:16:44.013Z,72.45
2022-09-05T02:19:39.054Z,72.68
2022-09-05T02:22:41.757Z,72.55
2022-09-05T02:26:01.185Z,72.99
2022-09-05T02:29:03.030Z,73.07
2022-09-05T02:31:46.215Z,73.00
2022-09-05T02:34:52.216Z,73.27
2022-09-05T02:38:15.608Z,73.26
2022-09-05T02:45:05.998Z,73.36
2022-09-05T02:45:25.803Z,73.46
2022-09-05T02:48:15.952Z,73.85
2022-09-05T02:57:24.397Z,73.65
2022-09-05T02:57:37.962Z,73.32
2022-09-05T02:58:06.356Z,73.41
2022-09-05T03:01:16.108Z,73.56
2022-09-05T03:04:09.119Z,73.59
2022-09-05T03:26:18.950Z,75.52
2022-09-05T03:29:16.963Z,75.15
2022-09-05T03:32:12.943Z,74.42
2022-09-05T03:35:08.243Z,74.19
2022-09-05T03:38:40.974Z,73.48
2022-09-05T03:41:45.913Z,73.14
2022-09-05T03:45:03.929Z,73.01
2022-09-05T03:47:53.966Z,73.13
2022-09-05T03:57:04.295Z,72.89
2022-09-05T03:57:18.763Z,72.79
2022-09-05T03:58:18.216Z,72.82
2022-09-05T04:03:23.613Z,72.56
2022-09-05T04:08:11.269Z,71.96
2022-09-05T04:08:14.410Z,72.15
2022-09-05T04:11:01.136Z,71.86
2022-09-05T04:14:14.930Z,71.14
2022-09-05T04:17:20.898Z,70.65
2022-09-05T04:20:45.494Z,70.42
2022-09-05T04:23:38.905Z,69.54
2022-09-05T04:26:46.918Z,68.29
2022-09-05T04:29:45.889Z,67.22
2022-09-05T04:32:56.872Z,66.11
2022-09-05T04:35:42.986Z,65.67
2022-09-05T04:38:54.882Z,64.98
2022-09-05T04:41:43.329Z,64.64
2022-09-05T04:44:33.833Z,63.75
2022-09-05T04:47:23.789Z,63.12
2022-09-05T04:50:37.746Z,60.84
2022-09-05T04:53:57.429Z,59.31
2022-09-05T04:56:57.864Z,56.98
2022-09-05T05:05:58.590Z,55.81
2022-09-05T05:06:19.101Z,55.13
2022-09-05T05:06:42.316Z,53.19
2022-09-05T05:09:19.806Z,52.09
2022-09-05T05:18:01.024Z,51.42
2022-09-05T05:18:10.551Z,50.99
2022-09-05T05:18:59.945Z,50.33
2022-09-05T05:21:43.933Z,50.47
2022-09-05T05:24:39.802Z,49.08
2022-09-05T05:27:23.022Z,48.59
2022-09-05T05:30:10.826Z,48.28
2022-09-05T05:32:55.962Z,47.24
2022-09-05T05:35:48.580Z,45.73
2022-09-05T05:38:47.838Z,45.89
2022-09-05T05:41:37.786Z,44.21
2022-09-05T05:44:32.809Z,43.14
2022-09-05T05:47:32.950Z,41.77
2022-09-05T05:50:28.806Z,40.74
2022-09-05T05:53:43.093Z,39.85
2022-09-05T05:56:36.149Z,39.04
2022-09-05T05:59:56.380Z,38.25
2022-09-05T06:03:25.632Z,37.71
2022-09-05T06:06:19.697Z,37.06
2022-09-05T06:14:49.582Z,35.78
2022-09-05T06:14:55.644Z,33.97
2022-09-05T06:16:42.776Z,32.31
2022-09-05T06:19:58.315Z,32.64
2022-09-05T06:23:01.751Z,32.24
2022-09-05T06:26:36.762Z,33.78
2022-09-05T06:29:38.374Z,35.37
2022-09-05T06:32:37.740Z,37.91
2022-09-05T06:35:46.763Z,38.91
2022-09-05T06:38:56.752Z,39.19
2022-09-05T06:41:59.772Z,39.68
2022-09-05T06:44:54.810Z,40.63
2022-09-05T06:47:39.196Z,41.10
2022-09-05T06:50:53.224Z,41.27
2022-09-05T06:53:54.811Z,40.31
2022-09-05T06:56:37.707Z,40.60
2022-09-05T06:59:35.786Z,41.73
2022-09-05T07:02:59.617Z,41.92
2022-09-05T07:06:09.732Z,42.90
2022-09-05T07:09:05.806Z,42.42
2022-09-05T07:12:06.701Z,43.22
2022-09-05T07:15:20.719Z,43.97
2022-09-05T07:18:10.874Z,44.26
2022-09-05T07:21:15.955Z,45.19
2022-09-05T07:24:11.149Z,44.52
2022-09-05T07:27:00.690Z,43.65
2022-09-05T07:30:01.201Z,40.71
2022-09-05T07:32:51.685Z,40.26
2022-09-05T07:35:41.437Z,42.02
2022-09-05T07:38:45.542Z,44.05
2022-09-05T07:41:42.751Z,43.69
2022-09-05T07:44:39.649Z,42.66
2022-09-05T07:47:37.662Z,42.14
2022-09-05T07:54:11.748Z,42.14
2022-09-05T07:56:58.766Z,42.38
2022-09-05T07:57:22.452Z,43.24
2022-09-05T07:59:53.766Z,44.94
2022-09-05T08:02:45.445Z,45.28
2022-09-05T08:05:34.961Z,44.26
2022-09-05T08:08:55.970Z,43.69
2022-09-05T08:11:48.255Z,44.40
2022-09-05T08:14:49.666Z,45.36
2022-09-05T08:17:38.659Z,45.09
2022-09-05T08:20:47.733Z,45.28
2022-09-05T08:23:52.748Z,45.19
2022-09-05T08:26:50.809Z,45.07
2022-09-05T08:29:38.642Z,45.46
2022-09-05T08:32:35.269Z,35.76
2022-09-05T08:35:27.598Z,29.64
2022-09-05T08:38:09.015Z,33.50
2022-09-05T08:41:00.638Z,36.78
2022-09-05T08:46:36.320Z,38.91
2022-09-05T08:47:25.680Z,40.80
2022-09-05T08:50:39.767Z,43.13
2022-09-05T08:53:56.742Z,44.22
2022-09-05T08:57:15.562Z,44.62
2022-09-05T09:00:20.735Z,45.02
2022-09-05T09:03:52.713Z,43.13
2022-09-05T09:07:17.512Z,32.44
2022-09-05T09:10:25.586Z,27.29
2022-09-05T09:13:23.781Z,31.68
2022-09-05T09:16:37.582Z,35.47
2022-09-05T09:19:38.594Z,34.13
2022-09-05T09:22:30.580Z,36.36
2022-09-05T09:25:33.951Z,36.95
2022-09-05T09:28:47.597Z,38.05
2022-09-05T09:31:52.643Z,40.75
2022-09-05T09:34:47.436Z,42.02
2022-09-05T09:37:51.734Z,43.56
2022-09-05T09:41:02.678Z,43.14
2022-09-05T09:44:06.725Z,40.08
2022-09-05T09:46:56.604Z,38.73
2022-09-05T09:49:39.725Z,36.88
2022-09-05T09:52:41.573Z,37.19
2022-09-05T09:55:41.089Z,38.54
2022-09-05T09:58:58.602Z,37.64
2022-09-05T10:05:28.838Z,40.76
2022-09-05T10:10:38.186Z,45.04
2022-09-05T10:10:49.219Z,48.81
2022-09-05T10:13:08.731Z,52.14
2022-09-05T10:16:14.617Z,52.99
2022-09-05T10:20:07.451Z,50.59
2022-09-05T10:22:42.621Z,42.15
2022-09-05T10:25:41.493Z,39.19
2022-09-05T10:29:30.176Z,43.26
2022-09-05T10:35:17.244Z,47.25
2022-09-05T10:35:29.848Z,48.83
2022-09-05T10:38:21.533Z,49.96
2022-09-05T10:41:22.369Z,49.61
2022-09-05T10:44:12.507Z,50.40
2022-09-05T10:47:04.719Z,52.30
2022-09-05T10:49:56.455Z,54.09
2022-09-05T10:53:09.507Z,54.24
2022-09-05T10:56:18.451Z,53.15
2022-09-05T11:02:16.616Z,47.90
2022-09-05T11:02:34.703Z,49.51
2022-09-05T11:05:33.522Z,50.83
2022-09-05T11:08:46.459Z,51.65
2022-09-05T11:11:34.801Z,53.02
2022-09-05T11:14:49.438Z,54.54
2022-09-05T11:17:42.496Z,54.66
2022-09-05T11:20:40.871Z,55.44
2022-09-05T11:23:31.540Z,55.78
2022-09-05T11:26:22.581Z,54.84
2022-09-05T11:29:18.422Z,54.24
2022-09-05T11:34:28.434Z,53.36
2022-09-05T11:39:46.815Z,51.46
2022-09-05T11:40:07.347Z,49.73
2022-09-05T11:43:10.478Z,50.05
2022-09-05T11:46:22.468Z,49.63
2022-09-05T11:49:39.402Z,50.05
2022-09-05T11:52:35.412Z,50.87
2022-09-05T11:56:15.450Z,52.58
2022-09-05T11:59:32.779Z,53.93
2022-09-05T12:02:57.485Z,54.52
2022-09-05T12:06:06.297Z,55.16
2022-09-05T12:09:08.605Z,55.66
2022-09-05T12:12:39.417Z,55.30
2022-09-05T12:15:34.488Z,55.00
2022-09-05T12:18:28.437Z,54.16
2022-09-05T12:21:38.862Z,54.04
2022-09-05T12:25:26.166Z,53.94
2022-09-05T12:27:46.441Z,54.63
2022-09-05T12:30:36.427Z,53.96
2022-09-05T12:36:06.728Z,53.79
2022-09-05T12:39:29.037Z,54.16
2022-09-05T12:41:36.422Z,54.03
2022-09-05T12:44:29.920Z,53.82
2022-09-05T12:46:26.291Z,53.39
2022-09-05T12:49:21.357Z,53.30
2022-09-05T12:52:30.351Z,53.51
2022-09-05T12:55:34.390Z,53.90
2022-09-05T13:02:59.211Z,52.88
2022-09-05T13:03:12.276Z,52.13
2022-09-05T13:05:11.689Z,51.61
2022-09-05T13:08:05.337Z,51.38
2022-09-05T13:14:50.287Z,51.33
2022-09-05T13:15:01.895Z,51.12
2022-09-05T13:17:44.427Z,49.79
2022-09-05T13:20:40.332Z,48.58
2022-09-05T13:23:48.675Z,48.37
2022-09-05T13:26:46.315Z,48.56
2022-09-05T13:29:30.467Z,48.27
2022-09-05T13:38:13.077Z,49.82
2022-09-05T13:38:20.340Z,49.70
2022-09-05T13:39:27.378Z,49.67
2022-09-05T13:42:12.042Z,49.91
2022-09-05T13:45:02.261Z,50.05
2022-09-05T13:47:55.466Z,49.60
2022-09-05T13:50:40.389Z,50.64
2022-09-05T13:53:37.054Z,50.34
2022-09-05T13:56:42.291Z,50.64
2022-09-05T13:59:27.488Z,51.25
2022-09-05T14:05:55.376Z,50.30
2022-09-05T14:09:35.747Z,49.73
2022-09-05T14:12:47.393Z,49.63
2022-09-05T14:15:40.293Z,50.31
2022-09-05T14:19:00.280Z,50.51
2022-09-05T14:21:52.230Z,50.34
2022-09-05T14:24:58.365Z,51.00
2022-09-05T14:27:45.277Z,51.15
2022-09-05T14:35:00.709Z,52.04
2022-09-05T14:37:46.828Z,52.09
2022-09-05T14:38:27.505Z,52.29
2022-09-05T14:41:23.397Z,51.89
2022-09-05T14:44:19.216Z,50.86
2022-09-05T14:47:36.421Z,50.87
2022-09-05T14:50:50.241Z,50.61
2022-09-05T14:57:23.547Z,51.14
2022-09-05T15:02:46.197Z,51.23
2022-09-05T15:03:02.194Z,51.56
2022-09-05T15:05:57.237Z,51.61
2022-09-05T15:11:24.446Z,52.00
2022-09-05T15:27:56.572Z,55.47
2022-09-05T15:30:36.836Z,55.18
2022-09-05T15:33:27.618Z,54.86
2022-09-05T15:36:13.788Z,54.77
2022-09-05T15:39:08.647Z,54.90
2022-09-05T15:42:27.554Z,55.12
2022-09-05T15:45:17.598Z,55.33
2022-09-05T15:48:18.857Z,55.79
2022-09-05T15:51:09.559Z,55.53
2022-09-05T15:53:58.554Z,55.56
2022-09-05T15:56:38.752Z,55.73
2022-09-05T15:59:30.570Z,56.08
2022-09-05T16:02:20.765Z,55.86
2022-09-05T16:10:26.968Z,55.82
2022-09-05T16:10:39.496Z,55.51
2022-09-05T16:15:50.033Z,55.82
2022-09-05T16:23:18.906Z,56.04
2022-09-05T16:23:34.529Z,56.85
2022-09-05T16:24:58.262Z,57.07
2022-09-05T16:27:54.490Z,57.41
2022-09-05T16:30:46.646Z,57.58
2022-09-05T16:33:34.476Z,57.63
2022-09-05T16:36:21.172Z,58.01
2022-09-05T16:39:13.522Z,58.15
2022-09-05T16:41:56.539Z,58.28
2022-09-05T16:44:55.535Z,58.56
2022-09-05T16:47:49.530Z,59.05
2022-09-05T16:50:47.983Z,59.32
2022-09-05T16:53:46.177Z,59.52
2022-09-05T16:57:00.514Z,59.64
2022-09-05T16:59:50.797Z,59.86
2022-09-05T17:02:58.664Z,60.25
2022-09-05T17:05:52.470Z,59.94
2022-09-05T17:08:42.490Z,60.22
2022-09-05T17:11:29.500Z,60.56
2022-09-05T17:14:22.501Z,60.44
2022-09-05T17:17:37.519Z,61.14
2022-09-05T17:20:24.492Z,60.89
2022-09-05T17:29:19.904Z,60.85
2022-09-05T17:29:28.161Z,61.02
2022-09-05T17:33:45.066Z,61.73
2022-09-05T17:36:51.546Z,61.62
2022-09-05T17:39:44.968Z,61.83
2022-09-05T17:42:41.458Z,61.80
2022-09-05T17:45:32.452Z,61.58
2022-09-05T17:48:12.577Z,61.69
2022-09-05T17:51:00.445Z,62.21
2022-09-05T17:54:14.463Z,62.27
2022-09-05T17:57:01.442Z,62.22
2022-09-05T17:59:41.561Z,62.89
2022-09-05T18:02:28.475Z,62.70
2022-09-05T18:05:09.664Z,63.20
2022-09-05T18:07:56.659Z,63.04
2022-09-05T18:11:14.366Z,63.96
2022-09-05T18:14:29.729Z,63.38
2022-09-05T18:17:59.428Z,63.53
2022-09-05T18:21:21.166Z,64.69
2022-09-05T18:24:19.360Z,64.54
2022-09-05T18:27:43.788Z,65.14
2022-09-05T18:30:27.397Z,64.50
2022-09-05T18:33:55.376Z,64.68
2022-09-05T18:36:34.392Z,65.47
2022-09-05T18:39:36.951Z,65.27
2022-09-05T18:42:33.567Z,64.99
2022-09-05T18:45:28.666Z,65.55
2022-09-05T18:48:15.592Z,65.87
2022-09-05T18:51:15.116Z,65.62
2022-09-05T18:54:03.386Z,66.15
2022-09-05T18:57:26.309Z,65.76
2022-09-05T19:00:12.362Z,66.62
2022-09-05T19:03:03.559Z,66.48
2022-09-05T19:06:35.076Z,65.90
2022-09-05T19:09:08.569Z,66.61
2022-09-05T19:12:33.933Z,67.33
2022-09-05T19:15:25.543Z,67.32
2022-09-05T19:18:26.984Z,67.44
2022-09-05T19:21:11.789Z,67.56
2022-09-05T19:24:09.543Z,67.69
2022-09-05T19:28:13.946Z,68.02
2022-09-05T19:36:44.810Z,67.54
2022-09-05T19:37:03.786Z,67.60
2022-09-05T19:37:12.358Z,67.90
2022-09-05T19:44:37.611Z,68.25
2022-09-05T19:47:30.926Z,67.79
2022-09-05T19:47:35.038Z,67.58
2022-09-05T19:49:07.763Z,67.22
2022-09-05T19:51:48.524Z,66.95
2022-09-05T19:54:30.706Z,66.56
2022-09-05T19:57:27.412Z,66.02
2022-09-05T20:00:08.810Z,66.16
2022-09-05T20:02:55.296Z,66.73
2022-09-05T20:05:47.531Z,66.64
2022-09-05T20:08:39.596Z,66.16
2022-09-05T20:11:36.034Z,66.67
2022-09-05T20:14:43.342Z,66.69
2022-09-05T20:17:28.552Z,66.02
2022-09-05T20:20:29.317Z,66.20
2022-09-05T20:23:10.171Z,66.47
2022-09-05T20:26:01.463Z,66.78
2022-09-05T20:28:53.997Z,67.16
2022-09-05T20:31:44.472Z,67.15
2022-09-05T20:36:31.319Z,67.50
2022-09-05T20:43:23.232Z,67.71
2022-09-05T20:43:29.306Z,67.76
2022-09-05T20:43:59.308Z,67.60
2022-09-05T20:49:04.459Z,67.14
2022-09-05T20:54:10.689Z,67.76
2022-09-05T20:54:17.181Z,67.64
2022-09-05T20:56:16.317Z,67.80
2022-09-05T20:58:58.684Z,67.98
2022-09-05T21:01:49.372Z,67.20
2022-09-05T21:04:54.205Z,67.67
2022-09-05T21:07:44.209Z,67.49
2022-09-05T21:10:26.358Z,67.57
2022-09-05T21:13:13.178Z,67.68
2022-09-05T21:16:00.345Z,66.74
2022-09-05T21:18:49.267Z,66.77
2022-09-05T21:21:38.209Z,66.57
2022-09-05T21:24:31.203Z,66.33
2022-09-05T21:27:36.193Z,66.47
2022-09-05T21:30:40.901Z,66.00
2022-09-05T21:33:33.757Z,65.89
2022-09-05T21:36:20.613Z,65.72
2022-09-05T21:39:07.187Z,66.36
2022-09-05T21:41:59.419Z,66.54
2022-09-05T21:47:37.888Z,66.95
2022-09-05T21:47:59.939Z,66.67
2022-09-05T21:50:53.152Z,66.81
2022-09-05T21:55:02.783Z,66.54
2022-09-05T21:59:29.145Z,66.98
2022-09-05T22:00:10.573Z,66.82
2022-09-05T22:02:53.436Z,67.02
2022-09-05T22:05:41.150Z,67.67
2022-09-05T22:08:22.577Z,68.02
2022-09-05T22:11:09.152Z,67.32
2022-09-05T22:13:59.092Z,67.63
2022-09-05T22:16:46.148Z,67.77
2022-09-05T22:19:37.693Z,67.93
2022-09-05T22:22:28.130Z,67.64
2022-09-05T22:25:30.537Z,67.83
2022-09-05T22:28:31.850Z,68.20
2022-09-05T22:31:22.051Z,68.07
2022-09-05T22:34:09.138Z,67.98
2022-09-05T22:36:50.953Z,67.94
2022-09-05T22:39:38.296Z,68.14
2022-09-05T22:42:18.558Z,68.12
2022-09-05T22:45:05.092Z,68.74
2022-09-05T22:47:45.462Z,68.05
2022-09-05T22:50:32.102Z,68.40
2022-09-05T22:53:12.603Z,68.63
2022-09-05T22:55:59.090Z,68.69
2022-09-05T22:58:44.808Z,68.18
2022-09-05T23:01:32.147Z,68.55
2022-09-05T23:04:19.268Z,67.95
2022-09-05T23:06:59.082Z,68.87
2022-09-05T23:09:46.089Z,68.72
2022-09-05T23:12:26.187Z,68.28
2022-09-05T23:15:13.075Z,68.07
2022-09-05T23:18:07.045Z,69.03
2022-09-05T23:20:54.090Z,69.09
2022-09-05T23:23:34.179Z,68.76
2022-09-05T23:26:22.085Z,68.61
2022-09-05T23:29:02.162Z,69.34
2022-09-05T23:31:49.051Z,69.41
2022-09-05T23:34:29.209Z,69.49
2022-09-05T23:37:16.058Z,69.60
2022-09-05T23:39:56.192Z,69.39
2022-09-05T23:42:43.020Z,69.64
2022-09-05T23:45:30.036Z,69.25
2022-09-05T23:48:17.147Z,69.75
2022-09-05T23:50:57.059Z,69.96
2022-09-05T23:53:37.829Z,69.67
2022-09-05T23:56:25.026Z,69.53
2022-09-05T23:59:12.037Z,69.18
